createdAt,value
2023-03-07T00:02:16.433Z,1.90
2023-03-07T00:04:47.258Z,2.00
2023-03-07T00:07:15.184Z,2.00
2023-03-07T00:09:43.007Z,2.00
2023-03-07T00:12:11.086Z,2.00
2023-03-07T00:14:38.210Z,2.00
2023-03-07T00:17:05.341Z,2.00
2023-03-07T00:19:34.079Z,2.00
2023-03-07T00:22:01.125Z,2.10
2023-03-07T00:24:28.196Z,2.30
2023-03-07T00:26:55.221Z,2.30
2023-03-07T00:29:22.601Z,2.30
2023-03-07T00:31:49.780Z,2.40
2023-03-07T00:34:16.937Z,2.30
2023-03-07T00:36:44.044Z,2.40
2023-03-07T00:39:11.369Z,2.40
2023-03-07T00:41:38.511Z,2.30
2023-03-07T00:44:05.520Z,2.40
2023-03-07T00:46:32.697Z,2.40
2023-03-07T00:49:00.054Z,2.40
2023-03-07T00:51:27.540Z,2.40
2023-03-07T00:53:54.756Z,2.40
2023-03-07T00:56:25.419Z,2.40
2023-03-07T00:58:52.619Z,2.30
2023-03-07T01:01:23.514Z,2.30
2023-03-07T01:03:53.775Z,2.20
2023-03-07T01:06:30.610Z,2.20
2023-03-07T01:09:01.744Z,2.20
2023-03-07T01:11:30.967Z,2.20
2023-03-07T01:14:01.387Z,2.30
2023-03-07T01:16:33.061Z,2.40
2023-03-07T01:19:05.457Z,2.40
2023-03-07T01:21:39.873Z,2.50
2023-03-07T01:24:10.125Z,2.50
2023-03-07T01:26:37.584Z,2.60
2023-03-07T01:29:07.073Z,2.60
2023-03-07T01:31:36.570Z,2.70
2023-03-07T01:34:05.111Z,2.70
2023-03-07T01:36:36.091Z,2.70
2023-03-07T01:39:14.367Z,2.70
2023-03-07T01:41:55.341Z,2.80
2023-03-07T01:44:26.601Z,2.70
2023-03-07T01:47:00.614Z,2.70
2023-03-07T01:49:48.679Z,2.70
2023-03-07T01:52:22.198Z,2.70
2023-03-07T01:55:03.376Z,2.60
2023-03-07T01:57:36.298Z,2.60
2023-03-07T02:00:10.896Z,2.60
2023-03-07T02:02:44.452Z,2.60
2023-03-07T02:05:24.104Z,2.60
2023-03-07T02:07:52.959Z,2.50
2023-03-07T02:10:24.631Z,2.50
2023-03-07T02:12:54.623Z,2.60
2023-03-07T02:15:23.016Z,2.60
2023-03-07T02:17:51.144Z,2.60
2023-03-07T02:20:59.060Z,2.60
2023-03-07T02:23:37.117Z,2.60
2023-03-07T02:26:36.391Z,2.60
2023-03-07T02:29:03.619Z,2.60
2023-03-07T02:31:32.919Z,2.70
2023-03-07T02:34:00.619Z,2.60
2023-03-07T02:36:34.345Z,2.60
2023-03-07T02:39:24.579Z,2.70
2023-03-07T02:41:55.567Z,2.70
2023-03-07T02:44:30.706Z,2.70
2023-03-07T02:46:57.854Z,2.60
2023-03-07T02:49:27.603Z,2.70
2023-03-07T02:51:57.740Z,2.70
2023-03-07T02:54:25.348Z,2.60
2023-03-07T02:56:54.181Z,2.60
2023-03-07T02:59:21.725Z,2.50
2023-03-07T03:01:49.010Z,2.50
2023-03-07T03:04:16.110Z,2.50
2023-03-07T03:06:43.263Z,2.50
2023-03-07T03:09:10.410Z,2.50
2023-03-07T03:11:37.432Z,2.40
2023-03-07T03:14:05.439Z,2.40
2023-03-07T03:16:32.595Z,2.40
2023-03-07T03:19:00.351Z,2.40
2023-03-07T03:21:27.571Z,2.30
2023-03-07T03:23:55.168Z,2.30
2023-03-07T03:26:22.642Z,2.30
2023-03-07T03:28:50.605Z,2.40
2023-03-07T03:31:18.364Z,2.30
2023-03-07T03:33:45.509Z,2.40
2023-03-07T03:36:16.722Z,2.40
2023-03-07T03:38:46.706Z,2.40
2023-03-07T03:41:18.053Z,2.40
2023-03-07T03:43:48.013Z,2.30
2023-03-07T03:46:16.941Z,2.40
2023-03-07T03:48:44.481Z,2.30
2023-03-07T03:51:14.720Z,2.40
2023-03-07T03:53:42.026Z,2.40
2023-03-07T03:56:19.518Z,2.40
2023-03-07T03:58:51.929Z,2.50
2023-03-07T04:01:21.699Z,2.40
2023-03-07T04:03:51.732Z,2.50
2023-03-07T04:06:23.745Z,2.50
2023-03-07T04:08:52.650Z,2.40
2023-03-07T04:11:21.420Z,2.40
2023-03-07T04:13:48.701Z,2.30
2023-03-07T04:16:16.960Z,2.40
2023-03-07T04:18:44.903Z,2.30
2023-03-07T04:21:12.960Z,2.30
2023-03-07T04:23:41.019Z,2.30
2023-03-07T04:26:10.249Z,2.40
2023-03-07T04:28:44.039Z,2.30
2023-03-07T04:31:23.824Z,2.40
2023-03-07T04:33:52.671Z,2.40
2023-03-07T04:36:20.945Z,2.50
2023-03-07T04:38:49.087Z,2.50
2023-03-07T04:41:23.552Z,2.60
2023-03-07T04:43:54.875Z,2.60
2023-03-07T04:46:25.802Z,2.70
2023-03-07T04:48:53.557Z,2.70
2023-03-07T04:51:21.357Z,2.70
2023-03-07T04:53:49.909Z,2.70
2023-03-07T04:56:17.408Z,2.70
2023-03-07T04:58:46.122Z,2.70
2023-03-07T05:01:14.128Z,2.80
2023-03-07T05:03:41.308Z,2.80
2023-03-07T05:06:14.862Z,2.90
2023-03-07T05:08:45.285Z,2.80
2023-03-07T05:11:12.498Z,2.80
2023-03-07T05:13:39.706Z,2.80
2023-03-07T05:16:07.509Z,2.80
2023-03-07T05:18:34.585Z,2.80
2023-03-07T05:21:01.667Z,2.80
2023-03-07T05:23:29.838Z,2.80
2023-03-07T05:25:57.049Z,2.80
2023-03-07T05:28:29.074Z,2.80
2023-03-07T05:30:56.112Z,2.90
2023-03-07T05:33:23.332Z,2.90
2023-03-07T05:35:50.633Z,2.90
2023-03-07T05:38:18.568Z,2.90
2023-03-07T05:40:46.160Z,2.90
2023-03-07T05:43:14.300Z,2.90
2023-03-07T05:45:41.512Z,3.00
2023-03-07T05:48:08.567Z,3.00
2023-03-07T05:50:39.033Z,3.00
2023-03-07T05:53:06.635Z,3.10
2023-03-07T05:55:34.861Z,3.00
2023-03-07T05:58:02.462Z,3.00
2023-03-07T06:00:29.703Z,3.00
2023-03-07T06:03:05.157Z,3.10
2023-03-07T06:05:33.431Z,3.10
2023-03-07T06:08:00.608Z,3.20
2023-03-07T06:10:28.208Z,3.20
2023-03-07T06:12:55.970Z,3.20
2023-03-07T06:15:24.731Z,3.30
2023-03-07T06:17:58.312Z,3.30
2023-03-07T06:20:25.618Z,3.30
2023-03-07T06:22:55.096Z,3.40
2023-03-07T06:25:23.091Z,3.50
2023-03-07T06:27:50.677Z,3.40
2023-03-07T06:30:18.046Z,3.50
2023-03-07T06:32:45.457Z,3.50
2023-03-07T06:35:12.892Z,3.50
2023-03-07T06:37:40.348Z,3.60
2023-03-07T06:40:10.968Z,3.60
2023-03-07T06:42:40.107Z,3.60
2023-03-07T06:45:09.252Z,3.60
2023-03-07T06:47:36.571Z,3.50
2023-03-07T06:50:06.100Z,3.50
2023-03-07T06:52:34.497Z,3.50
2023-03-07T06:55:01.773Z,3.50
2023-03-07T06:57:30.727Z,3.50
2023-03-07T06:59:58.094Z,3.50
2023-03-07T07:02:25.879Z,3.50
2023-03-07T07:04:54.570Z,3.50
2023-03-07T07:07:22.258Z,3.60
2023-03-07T07:09:49.579Z,3.60
2023-03-07T07:12:17.070Z,3.70
2023-03-07T07:14:45.468Z,3.90
2023-03-07T07:17:13.031Z,3.90
2023-03-07T07:19:40.108Z,3.90
2023-03-07T07:22:11.871Z,4.00
2023-03-07T07:24:39.477Z,4.10
2023-03-07T07:27:07.344Z,4.10
2023-03-07T07:29:34.925Z,4.10
2023-03-07T07:32:02.298Z,4.10
2023-03-07T07:34:29.559Z,4.10
2023-03-07T07:36:57.263Z,4.20
2023-03-07T07:39:24.497Z,4.20
2023-03-07T07:41:52.749Z,4.30
2023-03-07T07:44:22.501Z,4.40
2023-03-07T07:46:54.550Z,4.40
2023-03-07T07:49:21.671Z,4.20
2023-03-07T07:51:48.726Z,4.20
2023-03-07T07:54:15.882Z,4.20
2023-03-07T07:56:43.110Z,4.20
2023-03-07T07:59:10.657Z,4.20
2023-03-07T08:01:38.015Z,4.20
2023-03-07T08:04:05.302Z,4.30
2023-03-07T08:06:32.441Z,4.30
2023-03-07T08:09:00.253Z,4.20
2023-03-07T08:11:27.692Z,4.20
2023-03-07T08:13:54.869Z,4.20
2023-03-07T08:16:24.233Z,4.40
2023-03-07T08:18:57.327Z,4.40
2023-03-07T08:21:26.156Z,4.40
2023-03-07T08:23:56.849Z,4.40
2023-03-07T08:26:24.433Z,4.30
2023-03-07T08:28:51.562Z,4.50
2023-03-07T08:31:25.844Z,4.50
2023-03-07T08:33:53.246Z,4.70
2023-03-07T08:36:20.550Z,4.80
2023-03-07T08:38:52.190Z,4.90
2023-03-07T08:41:22.057Z,5.10
2023-03-07T08:43:49.228Z,5.20
2023-03-07T08:46:16.810Z,5.20
2023-03-07T08:48:44.207Z,5.20
2023-03-07T08:51:15.798Z,5.10
2023-03-07T08:53:44.457Z,5.10
2023-03-07T08:56:15.067Z,5.30
2023-03-07T08:58:42.464Z,5.40
2023-03-07T09:01:10.244Z,5.40
2023-03-07T09:03:37.740Z,5.50
2023-03-07T09:06:06.059Z,5.60
2023-03-07T09:08:33.612Z,5.50
2023-03-07T09:11:03.669Z,5.50
2023-03-07T09:13:35.942Z,5.60
2023-03-07T09:16:08.973Z,5.70
2023-03-07T09:18:36.739Z,5.60
2023-03-07T09:21:06.424Z,5.60
2023-03-07T09:23:33.579Z,5.70
2023-03-07T09:26:03.453Z,5.80
2023-03-07T09:28:30.596Z,5.80
2023-03-07T09:30:57.869Z,5.90
2023-03-07T09:33:25.192Z,5.80
2023-03-07T09:35:52.531Z,6.00
2023-03-07T09:38:19.818Z,5.90
2023-03-07T09:40:48.468Z,6.10
2023-03-07T09:43:23.464Z,6.00
2023-03-07T09:46:54.137Z,5.90
2023-03-07T09:49:31.581Z,6.10
2023-03-07T09:52:00.928Z,6.00
2023-03-07T09:54:41.231Z,6.10
2023-03-07T09:57:26.891Z,6.10
2023-03-07T10:00:34.189Z,6.20
2023-03-07T10:03:51.802Z,6.30
2023-03-07T10:06:58.610Z,6.80
2023-03-07T10:09:26.550Z,6.60
2023-03-07T10:12:13.240Z,6.70
2023-03-07T10:14:46.208Z,6.50
2023-03-07T10:17:48.501Z,6.40
2023-03-07T10:20:50.475Z,6.30
2023-03-07T10:23:45.133Z,6.60
2023-03-07T10:26:33.709Z,6.80
2023-03-07T10:29:16.515Z,6.40
2023-03-07T10:31:49.427Z,6.60
2023-03-07T10:34:27.445Z,6.70
2023-03-07T10:37:19.626Z,6.90
2023-03-07T10:39:56.849Z,7.10
2023-03-07T10:42:27.684Z,7.30
2023-03-07T10:44:54.821Z,7.20
2023-03-07T10:47:26.314Z,7.10
2023-03-07T10:50:26.071Z,7.40
2023-03-07T10:52:57.830Z,7.80
2023-03-07T10:55:46.751Z,7.70
2023-03-07T10:58:19.762Z,7.70
2023-03-07T11:01:07.490Z,7.50
2023-03-07T11:04:20.047Z,7.50
2023-03-07T11:07:27.914Z,7.60
2023-03-07T11:09:57.746Z,7.90
2023-03-07T11:12:29.204Z,8.30
2023-03-07T11:15:23.604Z,7.80
2023-03-07T11:17:52.577Z,8.00
2023-03-07T11:20:23.889Z,8.10
2023-03-07T11:23:18.351Z,8.20
2023-03-07T11:25:45.862Z,8.80
2023-03-07T11:28:25.357Z,8.90
2023-03-07T11:31:15.461Z,8.70
2023-03-07T11:33:59.574Z,8.20
2023-03-07T11:36:37.763Z,8.30
2023-03-07T11:39:20.196Z,7.80
2023-03-07T11:41:55.474Z,7.50
2023-03-07T11:44:50.264Z,7.50
2023-03-07T11:47:52.349Z,7.40
2023-03-07T11:50:27.328Z,7.50
2023-03-07T11:53:18.558Z,7.70
2023-03-07T11:56:16.366Z,7.70
2023-03-07T11:59:01.691Z,7.50
2023-03-07T12:01:56.616Z,7.40
2023-03-07T12:05:01.297Z,7.80
2023-03-07T12:07:42.238Z,7.80
2023-03-07T12:10:41.032Z,8.10
2023-03-07T12:13:17.837Z,8.00
2023-03-07T12:15:51.774Z,8.40
2023-03-07T12:19:18.972Z,8.20
2023-03-07T12:22:13.145Z,9.30
2023-03-07T12:25:19.733Z,9.60
2023-03-07T12:27:58.730Z,8.60
2023-03-07T12:30:44.557Z,8.40
2023-03-07T12:33:29.953Z,8.80
2023-03-07T12:36:04.861Z,8.80
2023-03-07T12:38:51.561Z,8.90
2023-03-07T12:41:57.900Z,8.80
2023-03-07T12:45:00.206Z,8.40
2023-03-07T12:47:55.234Z,8.70
2023-03-07T12:51:04.290Z,9.40
2023-03-07T12:53:45.882Z,10.50
2023-03-07T12:57:01.267Z,9.80
2023-03-07T12:59:29.874Z,9.50
2023-03-07T13:02:03.805Z,9.30
2023-03-07T13:04:40.021Z,9.80
2023-03-07T13:07:25.232Z,9.40
2023-03-07T13:09:55.494Z,9.60
2023-03-07T13:12:35.517Z,9.10
2023-03-07T13:15:06.415Z,8.70
2023-03-07T13:17:33.620Z,8.80
2023-03-07T13:20:10.349Z,8.30
2023-03-07T13:22:37.351Z,8.60
2023-03-07T13:25:23.048Z,8.50
2023-03-07T13:27:56.620Z,8.30
2023-03-07T13:30:34.261Z,8.50
2023-03-07T13:33:28.875Z,9.20
2023-03-07T13:36:00.240Z,8.80
2023-03-07T13:38:44.440Z,9.10
2023-03-07T13:41:13.671Z,9.60
2023-03-07T13:43:46.716Z,9.50
2023-03-07T13:46:47.192Z,9.60
2023-03-07T13:49:39.998Z,9.40
2023-03-07T13:52:44.281Z,9.20
2023-03-07T13:55:23.873Z,9.30
2023-03-07T13:57:51.201Z,8.80
2023-03-07T14:00:33.634Z,8.50
2023-03-07T14:03:01.543Z,8.30
2023-03-07T14:05:30.072Z,8.10
2023-03-07T14:07:59.299Z,8.10
2023-03-07T14:10:31.790Z,8.40
2023-03-07T14:13:17.412Z,8.10
2023-03-07T14:16:18.138Z,8.40
2023-03-07T14:18:55.546Z,8.30
2023-03-07T14:22:10.704Z,8.10
2023-03-07T14:24:46.427Z,8.10
2023-03-07T14:27:16.489Z,8.00
2023-03-07T14:29:52.777Z,8.00
2023-03-07T14:32:32.189Z,8.10
2023-03-07T14:34:59.959Z,7.80
2023-03-07T14:37:29.673Z,7.70
2023-03-07T14:40:00.224Z,7.50
2023-03-07T14:43:13.093Z,7.60
2023-03-07T14:45:49.854Z,7.60
2023-03-07T14:48:54.798Z,7.70
2023-03-07T14:51:26.677Z,7.90
2023-03-07T14:53:55.717Z,7.80
2023-03-07T14:56:33.049Z,7.60
2023-03-07T14:59:04.698Z,7.50
2023-03-07T15:01:41.071Z,7.40
2023-03-07T15:04:30.782Z,7.40
2023-03-07T15:07:01.939Z,7.50
2023-03-07T15:09:29.852Z,7.40
2023-03-07T15:12:22.644Z,7.40
2023-03-07T15:14:57.998Z,7.40
2023-03-07T15:17:34.574Z,7.40
2023-03-07T15:20:17.552Z,7.40
2023-03-07T15:22:44.757Z,7.40
2023-03-07T15:25:25.944Z,7.50
2023-03-07T15:28:21.945Z,7.30
2023-03-07T15:30:53.646Z,7.30
2023-03-07T15:33:20.850Z,7.20
2023-03-07T15:36:13.861Z,7.30
2023-03-07T15:38:42.866Z,7.40
2023-03-07T15:41:35.943Z,7.40
2023-03-07T15:44:19.302Z,7.30
2023-03-07T15:46:53.003Z,7.30
2023-03-07T15:49:23.809Z,7.40
2023-03-07T15:51:57.628Z,7.40
2023-03-07T15:54:39.412Z,7.30
2023-03-07T15:57:19.069Z,7.20
2023-03-07T15:59:56.711Z,7.20
2023-03-07T16:02:33.040Z,7.20
2023-03-07T16:05:28.857Z,7.20
2023-03-07T16:07:57.912Z,7.10
2023-03-07T16:10:32.071Z,7.10
2023-03-07T16:13:01.405Z,7.10
2023-03-07T16:15:29.146Z,7.10
2023-03-07T16:17:56.810Z,7.10
2023-03-07T16:20:29.157Z,7.10
2023-03-07T16:22:56.802Z,7.10
2023-03-07T16:25:27.210Z,7.00
2023-03-07T16:27:57.801Z,7.00
2023-03-07T16:30:28.616Z,7.00
2023-03-07T16:32:56.243Z,7.00
2023-03-07T16:35:26.766Z,7.00
2023-03-07T16:37:55.289Z,6.90
2023-03-07T16:40:23.129Z,6.90
2023-03-07T16:42:50.860Z,7.00
2023-03-07T16:45:31.067Z,6.90
2023-03-07T16:48:02.430Z,6.90
2023-03-07T16:50:33.430Z,6.90
2023-03-07T16:53:00.628Z,6.90
2023-03-07T16:55:27.929Z,7.00
2023-03-07T16:58:00.987Z,7.00
2023-03-07T17:00:29.163Z,7.00
2023-03-07T17:03:00.417Z,6.80
2023-03-07T17:05:30.073Z,6.20
2023-03-07T17:07:58.896Z,5.60
2023-03-07T17:10:27.499Z,5.10
2023-03-07T17:12:57.433Z,4.90
2023-03-07T17:15:30.519Z,4.80
2023-03-07T17:17:59.788Z,4.60
2023-03-07T17:20:27.671Z,4.50
2023-03-07T17:22:54.877Z,4.20
2023-03-07T17:25:23.844Z,3.90
2023-03-07T17:27:55.068Z,3.60
2023-03-07T17:30:28.576Z,3.50
2023-03-07T17:32:56.298Z,3.40
2023-03-07T17:35:23.953Z,3.20
2023-03-07T17:37:55.469Z,3.20
2023-03-07T17:40:23.188Z,3.10
2023-03-07T17:42:52.054Z,2.90
2023-03-07T17:45:19.815Z,2.90
2023-03-07T17:47:54.208Z,2.80
2023-03-07T17:50:24.944Z,2.70
2023-03-07T17:52:54.284Z,2.80
2023-03-07T17:55:24.883Z,2.90
2023-03-07T17:57:52.585Z,2.80
2023-03-07T18:00:21.107Z,2.90
2023-03-07T18:02:48.828Z,2.80
2023-03-07T18:05:16.279Z,2.80
2023-03-07T18:07:43.762Z,2.80
2023-03-07T18:10:12.736Z,2.90
2023-03-07T18:12:40.652Z,2.90
2023-03-07T18:15:13.584Z,2.90
2023-03-07T18:17:48.141Z,2.90
2023-03-07T18:20:19.754Z,3.00
2023-03-07T18:22:47.634Z,3.00
2023-03-07T18:25:17.673Z,3.10
2023-03-07T18:27:46.143Z,3.20
2023-03-07T18:30:14.399Z,3.20
2023-03-07T18:32:41.562Z,3.20
2023-03-07T18:35:09.256Z,3.20
2023-03-07T18:37:36.728Z,3.20
2023-03-07T18:40:04.765Z,3.30
2023-03-07T18:42:32.894Z,3.30
2023-03-07T18:45:00.103Z,3.30
2023-03-07T18:47:27.183Z,3.40
2023-03-07T18:49:54.382Z,3.50
2023-03-07T18:52:21.600Z,3.40
2023-03-07T18:54:49.307Z,3.30
2023-03-07T18:57:16.352Z,3.30
2023-03-07T18:59:43.431Z,3.40
2023-03-07T19:02:10.787Z,3.30
2023-03-07T19:04:37.934Z,3.30
2023-03-07T19:07:05.065Z,3.30
2023-03-07T19:09:32.121Z,3.20
2023-03-07T19:11:59.277Z,3.40
2023-03-07T19:14:26.540Z,3.20
2023-03-07T19:16:53.781Z,3.20
2023-03-07T19:19:21.008Z,3.20
2023-03-07T19:21:48.099Z,3.20
2023-03-07T19:24:15.276Z,3.30
2023-03-07T19:26:43.324Z,3.40
2023-03-07T19:29:12.225Z,3.50
2023-03-07T19:31:40.989Z,3.40
2023-03-07T19:34:09.288Z,3.60
2023-03-07T19:36:37.408Z,3.30
2023-03-07T19:39:05.174Z,3.40
2023-03-07T19:41:32.853Z,3.40
2023-03-07T19:44:01.145Z,3.50
2023-03-07T19:46:28.286Z,3.50
2023-03-07T19:48:56.620Z,3.50
2023-03-07T19:51:26.500Z,3.60
2023-03-07T19:53:57.118Z,3.50
2023-03-07T19:56:30.345Z,3.40
2023-03-07T19:58:59.778Z,3.40
2023-03-07T20:01:28.584Z,3.50
2023-03-07T20:03:57.056Z,3.40
2023-03-07T20:06:29.990Z,3.40
2023-03-07T20:08:58.643Z,3.30
2023-03-07T20:11:29.388Z,3.50
2023-03-07T20:13:59.285Z,3.40
2023-03-07T20:16:29.570Z,3.50
2023-03-07T20:19:03.036Z,3.40
2023-03-07T20:21:31.340Z,3.60
2023-03-07T20:24:00.502Z,3.60
2023-03-07T20:26:35.292Z,3.50
2023-03-07T20:29:06.067Z,3.60
2023-03-07T20:31:33.679Z,3.70
2023-03-07T20:34:01.287Z,3.40
2023-03-07T20:36:35.075Z,3.50
2023-03-07T20:39:13.034Z,3.50
2023-03-07T20:41:41.726Z,3.40
2023-03-07T20:44:13.622Z,3.40
2023-03-07T20:46:41.535Z,3.50
2023-03-07T20:49:12.150Z,3.40
2023-03-07T20:51:40.842Z,3.30
2023-03-07T20:54:15.292Z,3.20
2023-03-07T20:56:43.267Z,3.30
2023-03-07T20:59:18.395Z,3.40
2023-03-07T21:01:45.771Z,3.30
2023-03-07T21:04:15.118Z,3.10
2023-03-07T21:06:44.559Z,3.10
2023-03-07T21:09:14.284Z,3.10
2023-03-07T21:11:47.169Z,3.30
2023-03-07T21:14:16.525Z,3.40
2023-03-07T21:16:43.901Z,3.40
2023-03-07T21:19:11.581Z,3.40
2023-03-07T21:21:39.506Z,3.30
2023-03-07T21:24:07.405Z,3.20
2023-03-07T21:26:36.367Z,3.20
2023-03-07T21:29:04.946Z,3.20
2023-03-07T21:31:35.716Z,3.20
2023-03-07T21:34:10.481Z,3.20
2023-03-07T21:36:37.778Z,3.20
2023-03-07T21:39:08.040Z,3.20
2023-03-07T21:41:35.785Z,3.30
2023-03-07T21:44:03.110Z,3.20
2023-03-07T21:46:30.211Z,3.30
2023-03-07T21:48:59.342Z,3.30
2023-03-07T21:51:26.444Z,3.20
2023-03-07T21:53:53.974Z,3.00
2023-03-07T21:56:23.639Z,3.20
2023-03-07T21:58:52.104Z,3.20
2023-03-07T22:01:28.715Z,3.20
2023-03-07T22:03:59.106Z,3.10
2023-03-07T22:06:29.965Z,3.10
2023-03-07T22:08:59.985Z,3.20
2023-03-07T22:11:27.363Z,3.20
2023-03-07T22:13:54.573Z,3.20
2023-03-07T22:16:21.973Z,3.20
2023-03-07T22:18:55.211Z,3.20
2023-03-07T22:21:24.957Z,3.20
2023-03-07T22:23:57.913Z,3.10
2023-03-07T22:26:25.886Z,3.20
2023-03-07T22:28:54.345Z,3.20
2023-03-07T22:31:21.428Z,3.20
2023-03-07T22:33:48.530Z,3.20
2023-03-07T22:36:16.267Z,3.30
2023-03-07T22:38:44.249Z,3.30
2023-03-07T22:41:16.989Z,3.30
2023-03-07T22:43:44.515Z,3.30
2023-03-07T22:46:12.483Z,3.30
2023-03-07T22:48:40.480Z,3.30
2023-03-07T22:51:17.832Z,3.20
2023-03-07T22:53:45.187Z,3.20
2023-03-07T22:56:24.025Z,3.30
2023-03-07T22:58:51.530Z,3.30
2023-03-07T23:01:22.583Z,3.30
2023-03-07T23:03:51.103Z,3.20
2023-03-07T23:06:19.047Z,3.10
2023-03-07T23:08:53.526Z,3.20
2023-03-07T23:11:30.447Z,3.10
2023-03-07T23:13:57.930Z,3.20
2023-03-07T23:16:29.299Z,3.10
2023-03-07T23:19:00.687Z,3.20
2023-03-07T23:21:30.886Z,3.20
2023-03-07T23:23:59.635Z,3.20
2023-03-07T23:26:33.396Z,3.10
2023-03-07T23:29:01.149Z,3.10
2023-03-07T23:31:35.585Z,3.10
2023-03-07T23:34:15.938Z,3.10
2023-03-07T23:36:45.149Z,3.10
2023-03-07T23:39:12.825Z,2.90
2023-03-07T23:41:39.959Z,2.90
2023-03-07T23:44:07.040Z,3.00
2023-03-07T23:46:34.541Z,2.80
2023-03-07T23:49:04.545Z,2.60
2023-03-07T23:51:31.649Z,2.40
2023-03-07T23:53:58.944Z,2.40
2023-03-07T23:56:26.173Z,2.40
2023-03-07T23:58:53.813Z,2.30
